Terminal Aerodrome Forecast
Issued by NWS

Home | Current Version | Previous Version | Text Only | Print | Product List | Glossary On
Versions: 1 2 3 4 5 6 7 8 9 10 11 12 13 14 15 16 17 18 19 20 21 22 23 24 25 26 27 28 29 30 31 32 33
952
FTUS43 KILX 180227 AAA
TAFBMI
TAF AMD
KBMI 180227Z 1802/1824 26010KT 3SM BR OVC005
      TEMPO 1802/1804 2SM BR
     FM180700 28008KT 3SM BR OVC003
     FM181200 27006KT 2SM BR BKN003
     FM181500 23007KT 5SM BR BKN008
     FM181700 21009KT P6SM SCT020=

USA.gov is the U.S. government's official web portal to all federal, state and local government web resources and services.